Pagrindinis puslapis
METAR-TAF:

METAR-TAF

Oro uostai :

Futuna, Prancūzija

platuma: 14-19S, ilguma: 178-07W, Aukštis: 6 m

METAR: trūkstamas

Laikas: 22:26 (10:26 UTC)

Prognozė

Ataskaita buvo paskelbta 5 valandos ir 26 minutes, ne 05:00 UTC
Prognozė galioja nuo 22 metu 06 UTC su 23 metu 06 UTC
Vėjas 12 kt iš Pietryčių
Matomumas 10 km arba daugiau
Išsisklaidę debesys ne aukštis 2000 ft
Su prošvaistėmis ne aukštis 3500 ft
Laikinai
nuo 22 metu 06 UTC su 23 metu 06 UTC
Vėjas 15 kt iš Pietryčių su gūsio iki 25 kt

TAF: NLWF 220500Z 2206/2306 13012KT 9999 SCT020 BKN035 TEMPO 2206/2306 13015G25KT

Orai ataskaitas ir orų prognozės (METAR, TAF).

turimą stotys yra geltonos ir raudonos taškus žemėlapyje.

Perkelti pele per norėdami pamatyti stoties vardą.

Tada spustelėkite, norėdami matyti oro stebėjimo ir prognozės.

Norėdami pakeisti žemėlapį: spustelėkite ant žalios mygtukų su juodo kryžiaus žemyn,; žalią mygtuką su brūkšneliu, jei norite nutolinti; arba žalių rodyklių gretimoms žemėlapius.


METAR-TAF: